createdAt,value
2018-04-27T00:00:15.744Z,9.98
2018-04-27T00:01:15.868Z,10.01
2018-04-27T00:02:15.788Z,10.02
2018-04-27T00:03:15.744Z,9.98
2018-04-27T00:04:15.793Z,9.93
2018-04-27T00:05:15.753Z,9.99
2018-04-27T00:06:15.761Z,9.99
2018-04-27T00:07:15.781Z,9.95
2018-04-27T00:08:15.774Z,9.83
2018-04-27T00:09:15.788Z,9.88
2018-04-27T00:10:15.864Z,9.86
2018-04-27T00:11:15.804Z,9.89
2018-04-27T00:12:15.797Z,9.83
2018-04-27T00:13:15.812Z,9.92
2018-04-27T00:14:15.821Z,9.98
2018-04-27T00:15:15.821Z,9.85
2018-04-27T00:16:15.835Z,9.86
2018-04-27T00:17:15.838Z,9.89
2018-04-27T00:18:15.855Z,9.86
2018-04-27T00:19:15.854Z,9.88
2018-04-27T00:20:15.859Z,9.89
2018-04-27T00:21:15.889Z,9.88
2018-04-27T00:22:15.875Z,9.88
2018-04-27T00:23:15.922Z,9.91
2018-04-27T00:24:15.889Z,9.91
2018-04-27T00:25:15.895Z,9.89
2018-04-27T00:26:15.901Z,9.88
2018-04-27T00:27:15.942Z,9.88
2018-04-27T00:28:15.920Z,9.91
2018-04-27T00:29:15.924Z,9.81
2018-04-27T00:30:15.931Z,9.85
2018-04-27T00:31:15.944Z,9.74
2018-04-27T00:32:15.953Z,9.86
2018-04-27T00:33:15.952Z,9.86
2018-04-27T00:34:15.992Z,9.85
2018-04-27T00:35:15.974Z,9.73
2018-04-27T00:36:15.985Z,9.70
2018-04-27T00:37:15.981Z,9.74
2018-04-27T00:38:15.994Z,9.74
2018-04-27T00:39:16.037Z,9.77
2018-04-27T00:40:16.012Z,9.77
2018-04-27T00:41:16.019Z,9.65
2018-04-27T00:42:16.024Z,9.68
2018-04-27T00:43:16.031Z,9.71
2018-04-27T00:44:16.219Z,9.63
2018-04-27T00:45:16.047Z,9.50
2018-04-27T00:46:16.050Z,9.60
2018-04-27T00:47:16.061Z,9.55
2018-04-27T00:48:16.057Z,9.52
2018-04-27T00:49:16.078Z,9.52
2018-04-27T00:50:16.100Z,9.49
2018-04-27T00:51:16.085Z,9.50
2018-04-27T00:52:16.090Z,9.55
2018-04-27T00:53:16.120Z,9.48
2018-04-27T00:54:16.109Z,9.53
2018-04-27T00:55:16.111Z,9.44
2018-04-27T00:56:16.128Z,9.45
2018-04-27T00:57:16.128Z,9.42
2018-04-27T00:58:16.133Z,9.45
2018-04-27T00:59:16.132Z,9.49
2018-04-27T01:00:16.139Z,9.49
2018-04-27T01:01:16.155Z,9.41
2018-04-27T01:02:16.203Z,9.40
2018-04-27T01:03:16.187Z,9.44
2018-04-27T01:04:16.172Z,9.45
2018-04-27T01:05:16.216Z,9.44
2018-04-27T01:06:16.185Z,9.45
2018-04-27T01:07:16.236Z,9.49
2018-04-27T01:08:16.217Z,9.42
2018-04-27T01:09:16.236Z,9.41
2018-04-27T01:10:16.242Z,9.42
2018-04-27T01:11:16.222Z,9.42
2018-04-27T01:12:16.493Z,9.42
2018-04-27T01:13:16.278Z,9.40
2018-04-27T01:14:16.285Z,9.40
2018-04-27T01:15:16.327Z,9.35
2018-04-27T01:16:16.262Z,9.34
2018-04-27T01:17:16.411Z,9.35
2018-04-27T01:18:16.311Z,9.41
2018-04-27T01:19:16.309Z,9.31
2018-04-27T01:20:16.298Z,9.35
2018-04-27T01:21:16.381Z,9.34
2018-04-27T01:22:16.317Z,9.32
2018-04-27T01:23:16.328Z,9.32
2018-04-27T01:24:16.345Z,9.38
2018-04-27T01:25:16.411Z,9.30
2018-04-27T01:26:16.404Z,9.30
2018-04-27T01:27:16.338Z,9.30
2018-04-27T01:28:16.340Z,9.34
2018-04-27T01:29:16.400Z,9.16
2018-04-27T01:30:16.389Z,9.31
2018-04-27T01:31:16.439Z,9.34
2018-04-27T01:32:16.416Z,9.22
2018-04-27T01:33:16.410Z,9.17
2018-04-27T01:34:16.394Z,9.19
2018-04-27T01:35:16.436Z,9.17
2018-04-27T01:36:16.407Z,9.01
2018-04-27T01:37:16.445Z,9.15
2018-04-27T01:38:16.401Z,9.13
2018-04-27T01:39:16.494Z,9.15
2018-04-27T01:40:16.525Z,9.04
2018-04-27T01:41:16.426Z,9.12
2018-04-27T01:42:16.443Z,9.00
2018-04-27T01:43:16.479Z,9.08
2018-04-27T01:44:16.450Z,9.15
2018-04-27T01:45:16.468Z,9.15
2018-04-27T01:46:16.455Z,9.15
2018-04-27T01:47:16.470Z,9.04
2018-04-27T01:48:16.542Z,9.00
2018-04-27T01:49:16.496Z,9.01
2018-04-27T01:50:16.531Z,9.06
2018-04-27T01:51:16.645Z,9.03
2018-04-27T01:52:16.516Z,8.97
2018-04-27T01:53:16.513Z,9.00
2018-04-27T01:54:16.552Z,8.96
2018-04-27T01:55:16.530Z,8.98
2018-04-27T01:56:16.569Z,8.96
2018-04-27T01:57:16.537Z,8.96
2018-04-27T01:58:16.601Z,8.88
2018-04-27T01:59:16.553Z,8.86
2018-04-27T02:00:16.559Z,8.96
2018-04-27T02:01:16.674Z,8.88
2018-04-27T02:02:16.567Z,8.86
2018-04-27T02:03:16.651Z,8.82
2018-04-27T02:04:16.645Z,8.85
2018-04-27T02:05:16.606Z,8.83
2018-04-27T02:06:16.697Z,8.82
2018-04-27T02:07:16.602Z,8.86
2018-04-27T02:08:16.629Z,8.78
2018-04-27T02:09:16.616Z,8.76
2018-04-27T02:10:16.626Z,8.82
2018-04-27T02:11:16.632Z,8.76
2018-04-27T02:12:16.686Z,8.78
2018-04-27T02:13:16.797Z,8.78
2018-04-27T02:14:16.669Z,8.75
2018-04-27T02:15:16.687Z,8.79
2018-04-27T02:16:16.758Z,8.80
2018-04-27T02:17:16.693Z,8.75
2018-04-27T02:18:16.680Z,8.73
2018-04-27T02:19:16.677Z,8.75
2018-04-27T02:20:16.783Z,8.68
2018-04-27T02:21:16.694Z,8.68
2018-04-27T02:22:16.759Z,8.76
2018-04-27T02:23:16.733Z,8.76
2018-04-27T02:24:16.745Z,8.76
2018-04-27T02:25:16.751Z,8.78
2018-04-27T02:26:16.755Z,8.82
2018-04-27T02:27:16.811Z,8.70
2018-04-27T02:28:16.764Z,8.75
2018-04-27T02:29:16.739Z,8.82
2018-04-27T02:30:16.947Z,8.78
2018-04-27T02:31:16.760Z,8.76
2018-04-27T02:32:17.444Z,8.75
2018-04-27T02:33:16.804Z,8.67
2018-04-27T02:34:16.777Z,8.70
2018-04-27T02:35:16.788Z,8.67
2018-04-27T02:36:16.796Z,8.60
2018-04-27T02:37:16.801Z,8.55
2018-04-27T02:38:16.812Z,8.55
2018-04-27T02:39:16.919Z,8.57
2018-04-27T02:40:16.934Z,8.63
2018-04-27T02:41:16.831Z,8.54
2018-04-27T02:42:16.834Z,8.61
2018-04-27T02:43:16.847Z,8.47
2018-04-27T02:44:16.919Z,8.63
2018-04-27T02:45:16.845Z,8.42
2018-04-27T02:46:16.863Z,8.57
2018-04-27T02:47:16.898Z,8.50
2018-04-27T02:48:16.874Z,8.47
2018-04-27T02:49:16.895Z,8.40
2018-04-27T02:50:16.890Z,8.50
2018-04-27T02:51:16.890Z,8.45
2018-04-27T02:52:16.896Z,8.43
2018-04-27T02:53:16.928Z,8.25
2018-04-27T02:54:17.035Z,8.28
2018-04-27T02:55:16.939Z,8.28
2018-04-27T02:56:16.931Z,8.28
2018-04-27T02:57:16.950Z,8.17
2018-04-27T02:58:16.966Z,8.18
2018-04-27T02:59:16.941Z,8.18
2018-04-27T03:00:17.019Z,8.20
2018-04-27T03:01:16.962Z,8.14
2018-04-27T03:02:16.964Z,8.20
2018-04-27T03:03:16.992Z,8.17
2018-04-27T03:04:17.028Z,8.21
2018-04-27T03:05:16.989Z,8.18
2018-04-27T03:06:16.988Z,8.13
2018-04-27T03:07:17.130Z,8.14
2018-04-27T03:08:17.026Z,8.10
2018-04-27T03:09:17.013Z,8.13
2018-04-27T03:10:17.015Z,8.12
2018-04-27T03:11:17.038Z,8.09
2018-04-27T03:12:17.020Z,8.06
2018-04-27T03:13:17.101Z,8.06
2018-04-27T03:14:17.036Z,8.17
2018-04-27T03:15:17.063Z,8.13
2018-04-27T03:16:17.063Z,8.06
2018-04-27T03:17:17.083Z,8.02
2018-04-27T03:18:17.099Z,8.18
2018-04-27T03:19:17.099Z,8.09
2018-04-27T03:20:17.162Z,8.00
2018-04-27T03:21:17.094Z,8.04
2018-04-27T03:22:17.087Z,8.03
2018-04-27T03:23:17.107Z,8.04
2018-04-27T03:24:17.114Z,8.04
2018-04-27T03:25:17.106Z,8.07
2018-04-27T03:26:17.111Z,8.07
2018-04-27T03:27:17.132Z,8.03
2018-04-27T03:28:17.139Z,8.02
2018-04-27T03:29:17.154Z,8.03
2018-04-27T03:30:17.133Z,8.04
2018-04-27T03:31:17.149Z,8.02
2018-04-27T03:32:17.228Z,8.07
2018-04-27T03:33:17.154Z,8.00
2018-04-27T03:34:17.204Z,8.02
2018-04-27T03:35:17.166Z,8.04
2018-04-27T03:36:17.216Z,7.91
2018-04-27T03:37:17.207Z,7.92
2018-04-27T03:38:17.203Z,7.95
2018-04-27T03:39:17.197Z,7.86
2018-04-27T03:40:17.235Z,7.96
2018-04-27T03:41:17.235Z,7.92
2018-04-27T03:42:17.220Z,7.89
2018-04-27T03:43:17.243Z,7.89
2018-04-27T03:44:17.247Z,7.91
2018-04-27T03:45:17.385Z,7.92
2018-04-27T03:46:17.258Z,7.94
2018-04-27T03:47:17.240Z,7.91
2018-04-27T03:48:17.280Z,7.86
2018-04-27T03:49:17.264Z,7.89
2018-04-27T03:50:17.284Z,7.89
2018-04-27T03:51:17.320Z,7.89
2018-04-27T03:52:17.284Z,7.89
2018-04-27T03:53:17.298Z,7.91
2018-04-27T03:54:17.293Z,7.89
2018-04-27T03:55:17.301Z,7.91
2018-04-27T03:56:17.401Z,7.85
2018-04-27T03:57:17.320Z,7.91
2018-04-27T03:58:17.350Z,7.86
2018-04-27T03:59:17.342Z,7.86
2018-04-27T04:00:17.372Z,7.77
2018-04-27T04:01:17.352Z,7.89
2018-04-27T04:02:17.408Z,7.81
2018-04-27T04:03:17.349Z,7.74
2018-04-27T04:04:17.400Z,7.82
2018-04-27T04:05:17.365Z,7.81
2018-04-27T04:06:17.379Z,7.81
2018-04-27T04:07:17.416Z,7.86
2018-04-27T04:08:17.429Z,7.84
2018-04-27T04:09:17.386Z,7.81
2018-04-27T04:10:17.445Z,7.73
2018-04-27T04:11:17.408Z,7.86
2018-04-27T04:12:17.406Z,7.84
2018-04-27T04:13:17.405Z,7.79
2018-04-27T04:14:17.429Z,7.74
2018-04-27T04:15:17.434Z,7.67
2018-04-27T04:16:17.437Z,7.74
2018-04-27T04:17:17.449Z,7.76
2018-04-27T04:18:17.456Z,7.76
2018-04-27T04:19:17.457Z,7.74
2018-04-27T04:20:17.449Z,7.71
2018-04-27T04:21:17.450Z,7.70
2018-04-27T04:22:17.511Z,7.79
2018-04-27T04:23:17.495Z,7.81
2018-04-27T04:24:17.473Z,7.81
2018-04-27T04:25:17.481Z,7.82
2018-04-27T04:26:17.482Z,7.82
2018-04-27T04:27:17.518Z,7.76
2018-04-27T04:28:17.500Z,7.82
2018-04-27T04:29:17.511Z,7.81
2018-04-27T04:30:17.515Z,7.82
2018-04-27T04:31:17.566Z,7.82
2018-04-27T04:32:17.566Z,7.84
2018-04-27T04:33:17.521Z,7.86
2018-04-27T04:34:17.532Z,7.85
2018-04-27T04:35:17.553Z,7.82
2018-04-27T04:36:17.573Z,7.76
2018-04-27T04:37:17.562Z,7.82
2018-04-27T04:38:17.622Z,7.85
2018-04-27T04:39:17.563Z,7.94
2018-04-27T04:40:17.599Z,7.92
2018-04-27T04:41:17.574Z,7.92
2018-04-27T04:42:17.620Z,7.96
2018-04-27T04:43:17.585Z,8.00
2018-04-27T04:44:17.615Z,8.04
2018-04-27T04:45:17.630Z,8.02
2018-04-27T04:46:17.629Z,8.07
2018-04-27T04:47:17.611Z,8.12
2018-04-27T04:48:17.623Z,8.09
2018-04-27T04:49:17.619Z,8.12
2018-04-27T04:50:17.634Z,8.17
2018-04-27T04:51:17.641Z,8.14
2018-04-27T04:52:17.736Z,8.20
2018-04-27T04:53:17.649Z,8.14
2018-04-27T04:54:17.647Z,8.27
2018-04-27T04:55:17.691Z,8.27
2018-04-27T04:56:17.680Z,8.29
2018-04-27T04:57:17.731Z,8.29
2018-04-27T04:58:17.692Z,8.25
2018-04-27T04:59:17.693Z,8.36
2018-04-27T05:00:17.694Z,8.45
2018-04-27T05:01:17.694Z,8.45
2018-04-27T05:02:17.745Z,8.46
2018-04-27T05:03:17.706Z,8.52
2018-04-27T05:04:17.712Z,8.49
2018-04-27T05:05:17.717Z,8.52
2018-04-27T05:06:17.720Z,8.46
2018-04-27T05:07:17.731Z,8.61
2018-04-27T05:08:17.817Z,8.60
2018-04-27T05:09:17.768Z,8.64
2018-04-27T05:10:17.758Z,8.63
2018-04-27T05:11:17.770Z,8.75
2018-04-27T05:12:17.769Z,8.67
2018-04-27T05:13:17.765Z,8.75
2018-04-27T05:14:17.795Z,8.82
2018-04-27T05:15:17.794Z,8.80
2018-04-27T05:16:17.877Z,8.80
2018-04-27T05:17:17.807Z,8.94
2018-04-27T05:18:17.797Z,8.93
2018-04-27T05:19:17.848Z,9.01
2018-04-27T05:20:17.834Z,9.00
2018-04-27T05:21:17.834Z,9.01
2018-04-27T05:22:17.848Z,9.00
2018-04-27T05:23:17.835Z,9.16
2018-04-27T05:24:18.040Z,9.10
2018-04-27T05:25:17.873Z,9.00
2018-04-27T05:26:17.884Z,9.17
2018-04-27T05:27:17.857Z,9.16
2018-04-27T05:28:17.883Z,9.15
2018-04-27T05:29:17.867Z,9.20
2018-04-27T05:30:17.920Z,9.15
2018-04-27T05:31:17.886Z,9.17
2018-04-27T05:32:17.885Z,9.23
2018-04-27T05:33:17.895Z,9.26
2018-04-27T05:34:17.929Z,9.30
2018-04-27T05:35:17.932Z,9.34
2018-04-27T05:36:17.987Z,9.31
2018-04-27T05:37:17.939Z,9.24
2018-04-27T05:38:17.930Z,9.23
2018-04-27T05:39:17.985Z,9.20
2018-04-27T05:40:18.021Z,9.19
2018-04-27T05:41:17.970Z,9.16
2018-04-27T05:42:17.957Z,9.20
2018-04-27T05:43:17.964Z,9.31
2018-04-27T05:44:17.983Z,9.30
2018-04-27T05:45:17.966Z,9.26
2018-04-27T05:46:18.006Z,9.22
2018-04-27T05:47:18.012Z,9.27
2018-04-27T05:48:18.003Z,9.32
2018-04-27T05:49:18.004Z,9.35
2018-04-27T05:50:18.031Z,9.34
2018-04-27T05:51:18.013Z,9.41
2018-04-27T05:52:18.021Z,9.48
2018-04-27T05:53:18.036Z,9.52
2018-04-27T05:54:18.065Z,9.52
2018-04-27T05:55:18.039Z,9.53
2018-04-27T05:56:18.046Z,9.45
2018-04-27T05:57:18.074Z,9.52
2018-04-27T05:58:18.064Z,9.53
2018-04-27T05:59:18.063Z,9.59
2018-04-27T06:00:18.077Z,9.59
2018-04-27T06:01:18.080Z,9.63
2018-04-27T06:02:18.092Z,9.63
2018-04-27T06:03:18.095Z,9.71
2018-04-27T06:04:18.106Z,9.62
2018-04-27T06:05:18.105Z,9.78
2018-04-27T06:06:18.116Z,9.81
2018-04-27T06:07:18.128Z,9.83
2018-04-27T06:08:18.158Z,9.83
2018-04-27T06:09:18.196Z,9.81
2018-04-27T06:10:18.148Z,9.75
2018-04-27T06:11:18.173Z,9.78
2018-04-27T06:12:18.155Z,9.81
2018-04-27T06:13:18.198Z,9.89
2018-04-27T06:14:18.202Z,9.89
2018-04-27T06:15:18.245Z,9.88
2018-04-27T06:16:18.196Z,10.06
2018-04-27T06:17:18.203Z,10.09
2018-04-27T06:18:18.232Z,10.14
2018-04-27T06:19:18.194Z,10.18
2018-04-27T06:20:18.200Z,10.29
2018-04-27T06:21:18.216Z,10.44
2018-04-27T06:22:18.225Z,10.42
2018-04-27T06:23:18.235Z,10.39
2018-04-27T06:24:18.255Z,10.52
2018-04-27T06:25:18.244Z,10.49
2018-04-27T06:26:18.398Z,10.44
2018-04-27T06:27:18.253Z,10.57
2018-04-27T06:28:18.281Z,10.63
2018-04-27T06:29:18.266Z,10.68
2018-04-27T06:30:18.270Z,10.63
2018-04-27T06:31:18.316Z,10.68
2018-04-27T06:32:18.303Z,10.60
2018-04-27T06:33:18.300Z,10.72
2018-04-27T06:34:18.322Z,10.72
2018-04-27T06:35:18.343Z,10.84
2018-04-27T06:36:18.323Z,10.78
2018-04-27T06:37:18.327Z,10.88
2018-04-27T06:38:18.326Z,10.95
2018-04-27T06:40:18.360Z,10.93
2018-04-27T06:41:18.373Z,10.95
2018-04-27T06:42:18.359Z,10.95
2018-04-27T06:43:18.425Z,10.99
2018-04-27T06:44:18.378Z,10.95
2018-04-27T06:45:18.384Z,10.99
2018-04-27T06:46:18.402Z,11.03
2018-04-27T06:47:18.425Z,11.08
2018-04-27T06:48:18.427Z,10.99
2018-04-27T06:49:18.411Z,11.06
2018-04-27T06:50:18.434Z,11.11
2018-04-27T06:51:18.512Z,11.09
2018-04-27T06:52:18.435Z,11.09
2018-04-27T06:53:18.442Z,11.09
2018-04-27T06:54:18.451Z,11.06
2018-04-27T06:55:18.476Z,11.02
2018-04-27T06:56:18.479Z,11.09
2018-04-27T06:57:18.474Z,11.08
2018-04-27T06:58:18.486Z,11.16
2018-04-27T06:59:18.590Z,11.19
2018-04-27T07:00:18.522Z,11.20
2018-04-27T07:01:18.594Z,11.17
2018-04-27T07:02:18.504Z,11.17
2018-04-27T07:03:18.537Z,11.24
2018-04-27T07:04:18.563Z,11.16
2018-04-27T07:05:18.624Z,11.27
2018-04-27T07:06:18.573Z,11.28
2018-04-27T07:07:18.551Z,11.33
2018-04-27T07:08:18.554Z,11.27
2018-04-27T07:09:18.572Z,11.31
2018-04-27T07:10:18.565Z,11.20
2018-04-27T07:11:18.601Z,11.27
2018-04-27T07:12:18.613Z,11.21
2018-04-27T07:13:18.612Z,11.19
2018-04-27T07:14:18.605Z,11.23
2018-04-27T07:15:18.622Z,11.24
2018-04-27T07:16:18.628Z,11.33
2018-04-27T07:17:18.628Z,11.44
2018-04-27T07:18:18.685Z,11.44
2018-04-27T07:19:18.636Z,11.46
2018-04-27T07:20:18.650Z,11.39
2018-04-27T07:21:18.665Z,11.53
2018-04-27T07:22:18.681Z,11.56
2018-04-27T07:23:18.676Z,11.74
2018-04-27T07:24:18.682Z,11.67
2018-04-27T07:25:18.681Z,11.67
2018-04-27T07:26:18.696Z,11.75
2018-04-27T07:27:18.700Z,11.81
2018-04-27T07:28:18.714Z,11.81
2018-04-27T07:29:18.782Z,11.85
2018-04-27T07:30:18.724Z,11.87
2018-04-27T07:31:18.733Z,11.81
2018-04-27T07:32:18.779Z,11.84
2018-04-27T07:33:18.767Z,11.88
2018-04-27T07:34:18.767Z,11.82
2018-04-27T07:35:18.792Z,11.96
2018-04-27T07:36:18.780Z,11.88
2018-04-27T07:37:18.804Z,11.88
2018-04-27T07:38:18.808Z,11.88
2018-04-27T07:39:18.796Z,11.87
2018-04-27T07:40:18.852Z,12.01
2018-04-27T07:41:18.817Z,12.01
2018-04-27T07:42:18.813Z,12.05
2018-04-27T07:43:18.820Z,12.04
2018-04-27T07:44:18.838Z,12.04
2018-04-27T07:45:18.933Z,12.08
2018-04-27T07:46:18.861Z,12.11
2018-04-27T07:47:18.873Z,12.11
2018-04-27T07:48:18.881Z,12.08
2018-04-27T07:49:18.873Z,12.19
2018-04-27T07:50:18.903Z,12.22
2018-04-27T07:51:18.893Z,12.19
2018-04-27T07:52:18.898Z,12.23
2018-04-27T07:53:18.907Z,12.25
2018-04-27T07:54:18.967Z,12.16
2018-04-27T07:55:19.060Z,12.33
2018-04-27T07:56:18.936Z,12.31
2018-04-27T07:57:19.063Z,12.29
2018-04-27T07:58:18.982Z,12.30
2018-04-27T07:59:18.987Z,12.29
2018-04-27T08:00:18.967Z,12.34
2018-04-27T08:01:18.960Z,12.33
2018-04-27T08:02:19.016Z,12.37
2018-04-27T08:03:18.982Z,12.36
2018-04-27T08:04:18.986Z,12.40
2018-04-27T08:05:19.004Z,12.43
2018-04-27T08:06:19.010Z,12.51
2018-04-27T08:07:19.056Z,12.49
2018-04-27T08:08:19.063Z,12.62
2018-04-27T08:09:19.036Z,12.62
2018-04-27T08:10:19.059Z,12.59
2018-04-27T08:11:19.139Z,12.67
2018-04-27T08:12:19.073Z,12.58
2018-04-27T08:13:19.143Z,12.66
2018-04-27T08:14:19.089Z,12.69
2018-04-27T08:15:19.099Z,12.79
2018-04-27T08:16:19.105Z,12.71
2018-04-27T08:17:19.100Z,12.84
2018-04-27T08:18:19.117Z,12.77
2018-04-27T08:19:19.112Z,12.71
2018-04-27T08:20:19.130Z,12.84
2018-04-27T08:21:19.130Z,12.85
2018-04-27T08:22:19.168Z,12.88
2018-04-27T08:23:19.160Z,12.85
2018-04-27T08:24:19.149Z,12.87
2018-04-27T08:25:19.160Z,12.88
2018-04-27T08:26:19.176Z,12.89
2018-04-27T08:27:19.179Z,12.89
2018-04-27T08:28:19.213Z,13.01
2018-04-27T08:29:19.217Z,13.03
2018-04-27T08:30:19.246Z,13.04
2018-04-27T08:31:19.220Z,13.16
2018-04-27T08:32:19.221Z,13.19
2018-04-27T08:33:19.252Z,13.24
2018-04-27T08:34:19.255Z,13.27
2018-04-27T08:35:19.261Z,13.27
2018-04-27T08:36:19.253Z,13.31
2018-04-27T08:37:19.261Z,13.38
2018-04-27T08:38:19.280Z,13.47
2018-04-27T08:39:19.344Z,13.47
2018-04-27T08:40:19.288Z,13.48
2018-04-27T08:41:19.299Z,13.38
2018-04-27T08:42:19.298Z,13.47
2018-04-27T08:43:19.310Z,13.46
2018-04-27T08:44:19.350Z,13.43
2018-04-27T08:45:19.360Z,13.57
2018-04-27T08:46:19.350Z,13.48
2018-04-27T08:47:19.343Z,13.66
2018-04-27T08:48:19.378Z,13.54
2018-04-27T08:49:19.384Z,13.65
2018-04-27T08:50:19.458Z,13.59
2018-04-27T08:51:19.398Z,13.55
2018-04-27T08:52:19.387Z,13.62
2018-04-27T08:53:19.431Z,13.71
2018-04-27T08:54:19.456Z,13.66
2018-04-27T08:55:19.442Z,13.72
2018-04-27T08:56:19.458Z,13.75
2018-04-27T08:57:19.447Z,13.72
2018-04-27T08:58:19.499Z,13.86
2018-04-27T08:59:19.474Z,13.79
2018-04-27T09:00:19.495Z,13.79
2018-04-27T09:01:19.478Z,13.69
2018-04-27T09:02:19.495Z,13.76
2018-04-27T09:03:19.517Z,13.81
2018-04-27T09:04:19.502Z,13.86
2018-04-27T09:05:19.503Z,13.80
2018-04-27T09:06:19.523Z,13.87
2018-04-27T09:07:19.532Z,13.94
2018-04-27T09:08:19.644Z,13.98
2018-04-27T09:09:19.572Z,14.02
2018-04-27T09:10:19.592Z,13.99
2018-04-27T09:11:19.595Z,14.11
2018-04-27T09:12:19.578Z,14.08
2018-04-27T09:13:19.584Z,14.19
2018-04-27T09:14:19.620Z,14.23
2018-04-27T09:15:19.613Z,14.21
2018-04-27T09:16:19.694Z,14.20
2018-04-27T09:17:19.659Z,14.26
2018-04-27T09:18:19.709Z,14.21
2018-04-27T09:19:19.661Z,14.31
2018-04-27T09:20:19.655Z,14.34
2018-04-27T09:21:19.652Z,14.36
2018-04-27T09:22:19.667Z,14.35
2018-04-27T09:23:19.684Z,14.20
2018-04-27T09:24:19.690Z,14.34
2018-04-27T09:25:19.707Z,14.36
2018-04-27T09:26:19.751Z,14.35
2018-04-27T09:27:19.724Z,14.36
2018-04-27T09:28:19.717Z,14.39
2018-04-27T09:29:19.770Z,14.31
2018-04-27T09:30:19.787Z,14.52
2018-04-27T09:31:19.793Z,14.49
2018-04-27T09:32:19.806Z,14.56
2018-04-27T09:33:19.788Z,14.54
2018-04-27T09:34:19.790Z,14.61
2018-04-27T09:35:19.819Z,14.53
2018-04-27T09:36:19.815Z,14.54
2018-04-27T09:37:19.815Z,14.49
2018-04-27T09:38:19.829Z,14.56
2018-04-27T09:39:19.846Z,14.67
2018-04-27T09:40:19.854Z,14.75
2018-04-27T09:41:19.937Z,14.71
2018-04-27T09:43:19.886Z,14.85
2018-04-27T09:45:19.931Z,14.80
2018-04-27T09:46:19.995Z,14.82
2018-04-27T09:47:20.034Z,14.72
2018-04-27T09:48:19.904Z,14.72
2018-04-27T09:50:19.923Z,14.80
2018-04-27T09:51:19.936Z,14.78
2018-04-27T09:52:19.952Z,14.85
2018-04-27T09:53:19.984Z,14.95
2018-04-27T09:54:20.070Z,15.04
2018-04-27T09:55:20.162Z,15.04
2018-04-27T09:56:20.144Z,15.13
2018-04-27T09:57:20.046Z,15.00
2018-04-27T09:58:20.009Z,15.05
2018-04-27T09:59:20.020Z,15.03
2018-04-27T10:00:20.060Z,15.01
2018-04-27T10:01:20.034Z,15.11
2018-04-27T10:02:20.066Z,15.09
2018-04-27T10:03:20.055Z,15.18
2018-04-27T10:04:20.092Z,15.19
2018-04-27T10:05:20.104Z,15.28
2018-04-27T10:06:20.088Z,15.20
2018-04-27T10:07:20.133Z,15.35
2018-04-27T10:08:20.117Z,15.40
2018-04-27T10:09:20.129Z,15.37
2018-04-27T10:10:20.181Z,15.43
2018-04-27T10:11:20.289Z,15.46
2018-04-27T10:12:20.175Z,15.44
2018-04-27T10:13:20.146Z,15.43
2018-04-27T10:14:20.159Z,15.40
2018-04-27T10:15:20.270Z,15.51
2018-04-27T10:16:20.213Z,15.52
2018-04-27T10:17:20.200Z,15.55
2018-04-27T10:18:20.237Z,15.66
2018-04-27T10:19:20.282Z,15.58
2018-04-27T10:20:20.340Z,15.64
2018-04-27T10:21:20.250Z,15.70
2018-04-27T10:22:20.249Z,15.80
2018-04-27T10:23:20.255Z,15.84
2018-04-27T10:24:20.428Z,15.85
2018-04-27T10:25:20.289Z,15.84
2018-04-27T10:26:20.289Z,15.91
2018-04-27T10:27:20.306Z,15.89
2018-04-27T10:28:20.300Z,16.04
2018-04-27T10:29:20.316Z,15.98
2018-04-27T10:30:20.320Z,16.11
2018-04-27T10:31:20.353Z,16.13
2018-04-27T10:32:20.349Z,16.14
2018-04-27T10:33:20.353Z,16.22
2018-04-27T10:34:20.384Z,16.23
2018-04-27T10:35:20.398Z,16.29
2018-04-27T10:36:20.452Z,16.37
2018-04-27T10:37:20.409Z,16.40
2018-04-27T10:38:20.412Z,16.51
2018-04-27T10:39:20.414Z,16.55
2018-04-27T10:40:20.430Z,16.55
2018-04-27T10:41:20.434Z,16.54
2018-04-27T10:42:20.472Z,16.59
2018-04-27T10:43:20.452Z,16.57
2018-04-27T10:44:20.615Z,16.75
2018-04-27T10:45:20.524Z,16.85
2018-04-27T10:46:20.495Z,16.82
2018-04-27T10:48:20.637Z,16.90
2018-04-27T10:49:20.747Z,16.98
2018-04-27T10:51:20.564Z,17.07
2018-04-27T10:52:20.853Z,17.10
2018-04-27T10:53:20.576Z,17.17
2018-04-27T10:54:20.581Z,17.20
2018-04-27T10:55:20.648Z,17.15
2018-04-27T10:56:20.635Z,17.17
2018-04-27T10:57:20.618Z,17.28
2018-04-27T10:58:20.966Z,17.40
2018-04-27T10:59:20.626Z,17.60
2018-04-27T11:00:20.669Z,17.65
2018-04-27T11:01:20.696Z,17.65
2018-04-27T11:02:20.756Z,17.94
2018-04-27T11:03:20.717Z,18.28
2018-04-27T11:04:20.698Z,18.53
2018-04-27T11:05:20.710Z,18.99
2018-04-27T11:06:20.739Z,19.42
2018-04-27T11:07:20.730Z,19.65
2018-04-27T11:08:20.744Z,20.04
2018-04-27T11:09:20.787Z,20.16
2018-04-27T11:10:20.797Z,20.08
2018-04-27T11:11:20.804Z,20.10
2018-04-27T11:12:20.819Z,20.13
2018-04-27T11:13:20.820Z,20.42
2018-04-27T11:14:20.884Z,20.66
2018-04-27T11:15:20.887Z,20.94
2018-04-27T11:16:20.868Z,21.21
2018-04-27T11:17:21.005Z,21.36
2018-04-27T11:18:20.916Z,21.61
2018-04-27T11:19:20.957Z,21.85
2018-04-27T11:20:20.965Z,21.96
2018-04-27T11:21:20.978Z,22.26
2018-04-27T11:22:21.004Z,22.12
2018-04-27T11:23:21.007Z,22.14
2018-04-27T11:24:21.029Z,22.26
2018-04-27T11:25:21.060Z,22.33
2018-04-27T11:26:21.109Z,22.51
2018-04-27T11:27:21.107Z,22.69
2018-04-27T11:28:21.129Z,22.75
2018-04-27T11:29:21.203Z,22.88
2018-04-27T11:30:21.155Z,22.93
2018-04-27T11:31:21.204Z,22.72
2018-04-27T11:32:21.198Z,22.74
2018-04-27T11:33:21.238Z,22.85
2018-04-27T11:34:21.240Z,23.18
2018-04-27T11:35:21.349Z,23.11
2018-04-27T11:36:21.293Z,22.82
2018-04-27T11:37:21.316Z,22.69
2018-04-27T11:38:21.442Z,23.00
2018-04-27T11:39:21.354Z,23.07
2018-04-27T11:40:21.407Z,23.29
2018-04-27T11:41:21.483Z,23.57
2018-04-27T11:42:21.442Z,23.50
2018-04-27T11:43:21.549Z,23.52
2018-04-27T11:44:21.450Z,23.57
2018-04-27T11:45:21.557Z,23.64
2018-04-27T11:46:21.605Z,23.64
2018-04-27T11:47:21.523Z,23.60
2018-04-27T11:48:21.570Z,23.53
2018-04-27T11:49:21.598Z,23.62
2018-04-27T11:50:21.634Z,23.64
2018-04-27T11:51:21.640Z,23.67
2018-04-27T11:52:21.651Z,23.87
2018-04-27T11:53:21.692Z,23.96
2018-04-27T11:54:21.707Z,23.87
2018-04-27T11:55:21.803Z,23.93
2018-04-27T11:56:21.784Z,24.21
2018-04-27T11:57:21.807Z,24.42
2018-04-27T11:58:21.849Z,24.68
2018-04-27T11:59:21.910Z,24.86
2018-04-27T12:00:21.869Z,24.79
2018-04-27T12:01:21.926Z,24.86
2018-04-27T12:02:21.958Z,24.99
2018-04-27T12:03:21.993Z,25.08
2018-04-27T12:04:22.017Z,24.89
2018-04-27T12:05:22.021Z,24.98
2018-04-27T12:06:22.076Z,25.26
2018-04-27T12:08:53.977Z,25.85
2018-04-27T12:09:53.963Z,25.93
2018-04-27T12:10:54.023Z,25.93
2018-04-27T12:11:54.138Z,25.81
2018-04-27T12:12:54.092Z,25.93
2018-04-27T12:13:54.093Z,26.03
2018-04-27T12:14:54.149Z,26.38
2018-04-27T12:15:54.194Z,26.69
2018-04-27T12:16:54.209Z,26.84
2018-04-27T12:17:54.238Z,26.91
2018-04-27T12:18:54.294Z,26.90
2018-04-27T12:19:54.301Z,26.88
2018-04-27T12:20:54.315Z,26.86
2018-04-27T12:21:54.349Z,26.97
2018-04-27T12:22:54.408Z,27.01
2018-04-27T12:23:54.479Z,27.02
2018-04-27T12:24:54.461Z,26.86
2018-04-27T12:25:54.501Z,26.78
2018-04-27T12:26:54.524Z,26.78
2018-04-27T12:27:54.575Z,26.64
2018-04-27T12:28:54.724Z,26.57
2018-04-27T12:29:54.620Z,26.41
2018-04-27T12:30:54.702Z,26.39
2018-04-27T12:31:54.745Z,26.39
2018-04-27T12:32:54.724Z,26.60
2018-04-27T12:33:54.771Z,26.75
2018-04-27T12:34:54.841Z,26.98
2018-04-27T12:35:54.882Z,27.27
2018-04-27T12:36:54.890Z,27.45
2018-04-27T12:37:54.939Z,27.50
2018-04-27T12:38:54.949Z,27.49
2018-04-27T12:39:54.981Z,27.35
2018-04-27T12:40:54.999Z,27.40
2018-04-27T12:41:55.064Z,27.74
2018-04-27T12:42:55.091Z,28.05
2018-04-27T12:43:55.109Z,27.98
2018-04-27T12:44:55.228Z,27.90
2018-04-27T12:45:55.174Z,27.88
2018-04-27T12:46:55.204Z,28.23
2018-04-27T12:47:55.253Z,28.36
2018-04-27T12:48:55.300Z,28.70
2018-04-27T12:49:55.344Z,28.91
2018-04-27T12:50:55.352Z,28.83
2018-04-27T12:51:55.390Z,28.95
2018-04-27T12:52:55.440Z,28.97
2018-04-27T12:53:55.453Z,28.28
2018-04-27T12:54:55.507Z,27.72
2018-04-27T12:55:55.542Z,27.48
2018-04-27T12:56:55.579Z,27.63
2018-04-27T12:57:55.602Z,28.08
2018-04-27T12:58:55.635Z,28.39
2018-04-27T12:59:55.689Z,28.52
2018-04-27T13:00:55.719Z,28.85
2018-04-27T13:01:55.736Z,28.88
2018-04-27T13:02:55.795Z,28.91
2018-04-27T13:03:55.817Z,28.79
2018-04-27T13:04:55.850Z,28.98
2018-04-27T13:05:55.892Z,29.36
2018-04-27T13:06:55.927Z,29.54
2018-04-27T13:07:56.037Z,29.44
2018-04-27T13:08:55.976Z,28.95
2018-04-27T13:09:56.011Z,28.74
2018-04-27T13:10:56.104Z,29.07
2018-04-27T13:11:56.135Z,29.11